Time;durP1;ratioP1;P1;durP2;ratioP2;P2;SDS_P1;SDS_P2;PMS_P1;PMS_P2;Temp;Humidity;BMP_temperature;BMP_pressure;BME280_temperature;BME280_humidity;BME280_pressure;Samples;Min_cycle;Max_cycle;Signal;HPM_P1;HPM_P2
2022/03/08 00:00:12;;;;;;;20.07;9.37;;;1.90;99.90;;;;;;5108156;28;20264;-87
2022/03/08 00:02:40;;;;;;;14.07;9.00;;;1.80;99.90;;;;;;5113955;27;20287;-87
2022/03/08 00:05:07;;;;;;;15.20;8.13;;;1.90;99.90;;;;;;5103782;28;20561;-87
2022/03/08 00:07:34;;;;;;;18.47;9.00;;;1.90;99.90;;;;;;5108320;27;20249;-86
2022/03/08 00:10:01;;;;;;;17.70;8.40;;;1.80;99.90;;;;;;5096566;28;20274;-87
2022/03/08 00:12:28;;;;;;;17.53;9.17;;;1.90;99.90;;;;;;5094305;27;20210;-86
2022/03/08 00:14:55;;;;;;;15.00;8.17;;;2.10;99.90;;;;;;5102605;27;20197;-87
2022/03/08 00:17:27;;;;;;;15.10;8.07;;;1.80;99.90;;;;;;5099140;28;20218;-86
2022/03/08 00:19:54;;;;;;;16.33;8.23;;;1.90;99.90;;;;;;5097432;28;20205;-85
2022/03/08 00:22:22;;;;;;;17.70;9.30;;;2.00;99.90;;;;;;5086988;28;20646;-87
2022/03/08 00:24:49;;;;;;;15.80;8.27;;;1.80;99.90;;;;;;5086000;28;20226;-86
2022/03/08 00:27:16;;;;;;;15.27;8.53;;;1.70;99.90;;;;;;5095746;28;20210;-86
2022/03/08 00:29:43;;;;;;;15.47;8.60;;;1.70;99.90;;;;;;5097772;28;20265;-88
2022/03/08 00:32:09;;;;;;;15.40;9.13;;;1.60;99.90;;;;;;5095121;28;20674;-86
2022/03/08 00:34:36;;;;;;;18.93;8.57;;;1.60;99.90;;;;;;5092581;28;20212;-87
2022/03/08 00:37:04;;;;;;;15.70;8.10;;;1.60;99.90;;;;;;5073150;28;20199;-86
2022/03/08 00:39:30;;;;;;;19.23;9.47;;;1.60;99.90;;;;;;5093466;28;20675;-87
2022/03/08 00:41:57;;;;;;;21.80;9.43;;;1.20;99.90;;;;;;5092614;28;20823;-87
2022/03/08 00:44:24;;;;;;;18.80;8.13;;;1.60;99.90;;;;;;5094219;28;20259;-87
2022/03/08 00:46:51;;;;;;;16.60;9.60;;;1.20;99.90;;;;;;5097304;28;20249;-87
2022/03/08 00:49:18;;;;;;;21.53;9.53;;;1.50;99.90;;;;;;5091976;28;20283;-89
2022/03/08 00:51:46;;;;;;;21.63;9.77;;;1.40;99.90;;;;;;5098802;28;20213;-87
2022/03/08 00:54:14;;;;;;;17.73;9.60;;;1.50;99.90;;;;;;5090863;28;20325;-87
2022/03/08 00:56:41;;;;;;;19.87;9.27;;;1.30;99.90;;;;;;5096931;28;20266;-86
2022/03/08 00:59:08;;;;;;;16.67;9.23;;;1.40;99.90;;;;;;5090482;28;20641;-86
2022/03/08 01:01:37;;;;;;;16.80;8.10;;;1.40;99.90;;;;;;5092425;28;20223;-86
2022/03/08 01:04:04;;;;;;;16.57;9.23;;;1.40;99.90;;;;;;5090673;28;20202;-86
2022/03/08 01:06:32;;;;;;;21.27;9.43;;;1.30;99.90;;;;;;5101058;28;20279;-87
2022/03/08 01:09:03;;;;;;;20.00;9.80;;;0.70;99.90;;;;;;5098651;28;20694;-85
2022/03/08 01:11:32;;;;;;;20.13;9.60;;;1.10;99.90;;;;;;5095493;28;20565;-87
2022/03/08 01:13:59;;;;;;;20.07;10.23;;;1.20;99.90;;;;;;5099133;28;20303;-87
2022/03/08 01:16:26;;;;;;;21.63;9.70;;;1.70;99.90;;;;;;5099323;28;20236;-87
2022/03/08 01:18:53;;;;;;;21.97;10.07;;;1.30;99.90;;;;;;5090064;28;20221;-87
2022/03/08 01:21:20;;;;;;;23.40;10.93;;;1.30;99.90;;;;;;5103450;28;20211;-87
2022/03/08 01:23:47;;;;;;;20.53;9.47;;;1.00;99.90;;;;;;5100058;28;20607;-86
2022/03/08 01:26:15;;;;;;;20.53;10.30;;;1.70;99.90;;;;;;5096763;28;20244;-86
2022/03/08 01:28:42;;;;;;;16.87;9.50;;;1.20;99.90;;;;;;5087515;28;20654;-88
2022/03/08 01:31:09;;;;;;;19.17;10.40;;;0.30;99.90;;;;;;5097953;28;20324;-87
2022/03/08 01:33:36;;;;;;;20.77;10.67;;;1.10;99.90;;;;;;5097294;28;20216;-86
2022/03/08 01:36:03;;;;;;;22.00;11.57;;;1.10;99.90;;;;;;5098824;28;20206;-89
2022/03/08 01:38:30;;;;;;;23.40;10.50;;;1.10;99.90;;;;;;5098992;28;20295;-87
2022/03/08 01:40:57;;;;;;;17.73;10.60;;;1.00;99.90;;;;;;5084363;28;20228;-86
2022/03/08 01:43:24;;;;;;;23.43;9.93;;;1.00;99.90;;;;;;5094044;28;20203;-86
2022/03/08 01:45:51;;;;;;;18.80;9.77;;;1.00;99.90;;;;;;5095857;28;20225;-86
2022/03/08 01:48:21;;;;;;;18.90;10.07;;;1.00;99.90;;;;;;5097613;28;20227;-87
2022/03/08 01:50:48;;;;;;;21.33;10.53;;;1.00;99.90;;;;;;5079481;28;20278;-87
2022/03/08 01:53:15;;;;;;;15.90;10.33;;;1.00;99.90;;;;;;5083267;28;20211;-87
2022/03/08 01:55:42;;;;;;;21.50;10.17;;;0.90;99.90;;;;;;5065212;28;20205;-86
2022/03/08 01:58:14;;;;;;;24.33;10.83;;;0.90;99.90;;;;;;5080263;28;20278;-87
2022/03/08 02:00:43;;;;;;;21.27;10.60;;;0.80;99.90;;;;;;5091340;28;20299;-88
2022/03/08 02:03:10;;;;;;;18.80;10.07;;;0.70;99.90;;;;;;5071212;28;20277;-86
2022/03/08 02:05:38;;;;;;;23.23;10.97;;;0.70;99.90;;;;;;5077796;28;20224;-89
2022/03/08 02:08:05;;;;;;;20.87;10.47;;;0.60;99.90;;;;;;5077612;28;20552;-86
2022/03/08 02:10:32;;;;;;;20.77;9.83;;;0.60;99.90;;;;;;5081036;28;20228;-87
2022/03/08 02:13:01;;;;;;;23.43;11.77;;;0.60;99.90;;;;;;5102745;28;20249;-87
2022/03/08 02:15:28;;;;;;;19.37;10.50;;;0.70;99.90;;;;;;5089015;28;20680;-87
2022/03/08 02:17:59;;;;;;;20.83;11.00;;;0.60;99.90;;;;;;5091830;28;20197;-87
2022/03/08 02:20:27;;;;;;;19.53;11.37;;;0.50;99.90;;;;;;5078117;28;20224;-87
2022/03/08 02:22:54;;;;;;;23.33;11.13;;;0.50;99.90;;;;;;5082879;28;20227;-87
2022/03/08 02:25:23;;;;;;;22.90;11.07;;;0.50;99.90;;;;;;5081766;28;20269;-86
2022/03/08 02:27:52;;;;;;;21.27;10.40;;;0.50;99.90;;;;;;5079606;28;20260;-88
2022/03/08 02:30:21;;;;;;;22.10;10.30;;;0.40;99.90;;;;;;5081567;28;20247;-87
2022/03/08 02:32:48;;;;;;;20.77;11.00;;;0.40;99.90;;;;;;5084475;28;20224;-88
2022/03/08 02:35:19;;;;;;;26.57;11.63;;;0.40;99.90;;;;;;5080792;28;20701;-87
2022/03/08 02:38:06;;;;;;;21.73;10.83;;;0.30;99.90;;;;;;5081319;28;20302;-88
2022/03/08 02:40:38;;;;;;;23.03;11.40;;;0.30;99.90;;;;;;5089404;28;20280;-86
2022/03/08 02:43:07;;;;;;;23.80;11.23;;;0.20;99.90;;;;;;5080376;28;20197;-88
2022/03/08 02:45:34;;;;;;;20.23;10.80;;;-0.20;99.90;;;;;;5083954;28;20257;-87
2022/03/08 02:48:01;;;;;;;23.27;11.00;;;0.50;99.90;;;;;;5092010;28;20231;-86
2022/03/08 02:50:32;;;;;;;20.20;10.23;;;0.50;99.90;;;;;;5081464;28;20431;-87
2022/03/08 02:53:01;;;;;;;20.23;10.87;;;0.20;99.90;;;;;;5086667;28;20283;-88
2022/03/08 02:55:30;;;;;;;19.87;11.67;;;0.20;99.90;;;;;;5076700;28;20227;-87
2022/03/08 02:57:57;;;;;;;23.53;11.23;;;0.20;99.90;;;;;;5086477;28;20200;-86
2022/03/08 03:00:26;;;;;;;23.00;10.10;;;0.00;99.90;;;;;;5090130;28;20212;-87
2022/03/08 03:02:54;;;;;;;21.37;11.67;;;0.40;99.90;;;;;;5090612;28;20206;-89
2022/03/08 03:05:21;;;;;;;20.83;11.57;;;0.00;99.90;;;;;;5107825;28;20212;-88
2022/03/08 03:07:48;;;;;;;21.37;11.60;;;0.00;99.90;;;;;;5088846;28;20227;-89
2022/03/08 03:10:18;;;;;;;21.63;11.33;;;-0.10;99.90;;;;;;5090655;28;20227;-87
2022/03/08 03:12:46;;;;;;;23.90;11.10;;;-0.10;99.90;;;;;;5081234;28;20227;-86
2022/03/08 03:15:15;;;;;;;23.00;11.20;;;-0.10;99.90;;;;;;5083181;28;20270;-88
2022/03/08 03:17:42;;;;;;;26.47;11.67;;;-0.10;99.90;;;;;;5081643;28;20626;-87
2022/03/08 03:20:11;;;;;;;20.87;10.97;;;-0.10;99.90;;;;;;5101321;28;20684;-87
2022/03/08 03:22:38;;;;;;;27.10;11.77;;;-0.10;99.90;;;;;;5086299;28;20235;-88
2022/03/08 03:25:06;;;;;;;22.23;11.50;;;-0.20;99.90;;;;;;5100022;28;20254;-87
2022/03/08 03:27:33;;;;;;;21.60;11.43;;;-0.20;99.90;;;;;;5093003;28;20234;-88
2022/03/08 03:30:00;;;;;;;27.27;11.00;;;-0.20;99.90;;;;;;5092213;28;20228;-88
2022/03/08 03:32:27;;;;;;;18.67;10.07;;;-0.10;99.90;;;;;;5083262;28;20228;-88
2022/03/08 03:34:55;;;;;;;27.27;11.87;;;-0.10;99.90;;;;;;5084983;28;20230;-87
2022/03/08 03:37:23;;;;;;;23.90;11.50;;;-0.30;99.90;;;;;;5090077;28;20260;-89
2022/03/08 03:39:51;;;;;;;20.40;10.57;;;-0.40;99.90;;;;;;5087450;28;20663;-88
2022/03/08 03:42:19;;;;;;;18.80;10.50;;;-0.40;99.90;;;;;;5080860;28;20252;-88
2022/03/08 03:44:46;;;;;;;21.20;10.70;;;-0.40;99.90;;;;;;5085493;28;20513;-89
2022/03/08 03:47:12;;;;;;;22.13;10.97;;;-0.40;99.90;;;;;;5078468;28;20266;-89
2022/03/08 03:49:39;;;;;;;24.43;11.70;;;-0.50;99.90;;;;;;5075191;28;20260;-89
2022/03/08 03:52:10;;;;;;;30.97;12.67;;;-0.50;99.90;;;;;;5077138;28;20204;-88
2022/03/08 03:54:37;;;;;;;22.87;12.10;;;-0.50;99.90;;;;;;5080392;28;20261;-88
2022/03/08 03:57:04;;;;;;;26.83;12.87;;;-0.50;99.90;;;;;;5076569;28;20235;-87
2022/03/08 03:59:31;;;;;;;21.93;11.63;;;-0.50;99.90;;;;;;5082576;28;20663;-88
2022/03/08 04:01:58;;;;;;;25.33;11.83;;;-0.50;99.90;;;;;;5075995;28;20310;-87
2022/03/08 04:04:25;;;;;;;22.87;11.47;;;-0.50;99.90;;;;;;5095805;28;20203;-89
2022/03/08 04:06:52;;;;;;;19.73;10.77;;;-0.40;99.90;;;;;;5078525;28;20212;-88
2022/03/08 04:09:18;;;;;;;24.23;11.20;;;-0.50;99.90;;;;;;5091497;28;20291;-90
2022/03/08 04:11:45;;;;;;;18.00;10.07;;;-0.50;99.90;;;;;;5071768;28;20213;-91
2022/03/08 04:14:15;;;;;;;22.20;11.33;;;-0.50;99.90;;;;;;5081644;28;20291;-88
2022/03/08 04:16:41;;;;;;;21.00;9.97;;;-0.50;99.90;;;;;;5080629;28;20226;-89
2022/03/08 04:19:08;;;;;;;23.20;10.70;;;-0.50;99.90;;;;;;5064673;28;20238;-88
2022/03/08 04:21:35;;;;;;;23.33;10.90;;;-0.50;99.90;;;;;;5074061;28;20212;-85
2022/03/08 04:24:02;;;;;;;19.83;11.13;;;-0.50;99.90;;;;;;5081378;28;20276;-88
2022/03/08 04:26:29;;;;;;;21.17;11.20;;;-0.60;99.90;;;;;;5093561;28;20213;-88
2022/03/08 04:28:56;;;;;;;20.77;11.50;;;-0.60;99.90;;;;;;5093451;28;20347;-87
2022/03/08 04:31:23;;;;;;;19.17;10.20;;;-0.60;99.90;;;;;;5077348;28;20268;-87
2022/03/08 04:33:50;;;;;;;17.13;10.60;;;-0.60;99.90;;;;;;5099104;28;20211;-87
2022/03/08 04:36:17;;;;;;;24.97;11.00;;;-0.60;99.90;;;;;;5078609;28;20196;-87
2022/03/08 04:38:49;;;;;;;20.10;10.73;;;-0.60;99.90;;;;;;5074755;28;20196;-86
2022/03/08 04:41:16;;;;;;;20.83;10.37;;;-0.50;99.90;;;;;;5080015;28;20656;-86
2022/03/08 04:43:46;;;;;;;21.37;11.13;;;-0.50;99.90;;;;;;5081816;28;20268;-87
2022/03/08 04:46:14;;;;;;;19.33;9.93;;;-0.50;99.90;;;;;;5083613;28;20587;-88
2022/03/08 04:48:41;;;;;;;19.57;11.37;;;-0.40;99.90;;;;;;5083882;28;20223;-87
2022/03/08 04:51:08;;;;;;;20.07;10.37;;;-0.40;99.90;;;;;;5086517;28;20261;-87
2022/03/08 04:53:35;;;;;;;21.47;9.93;;;-0.30;99.90;;;;;;5085497;28;20208;-86
2022/03/08 04:56:02;;;;;;;18.17;9.73;;;-0.30;99.90;;;;;;5076811;28;20208;-86
2022/03/08 04:58:31;;;;;;;17.77;9.47;;;-0.30;99.90;;;;;;5081111;28;20614;-87
2022/03/08 05:00:58;;;;;;;18.67;9.40;;;-0.20;99.90;;;;;;5078855;28;20338;-86
2022/03/08 05:03:25;;;;;;;20.63;9.93;;;-0.20;99.90;;;;;;5098063;28;20277;-86
2022/03/08 05:05:52;;;;;;;14.40;8.83;;;-0.20;99.90;;;;;;5096142;28;20243;-86
2022/03/08 05:08:19;;;;;;;20.37;10.57;;;-0.20;99.90;;;;;;5080609;28;20207;-87
2022/03/08 05:10:51;;;;;;;15.90;9.20;;;-0.20;99.90;;;;;;5073822;28;20287;-86
2022/03/08 05:13:18;;;;;;;21.17;9.17;;;-0.20;99.90;;;;;;5072869;28;20212;-86
2022/03/08 05:15:48;;;;;;;15.13;9.67;;;-0.20;99.90;;;;;;5069351;28;20220;-86
2022/03/08 05:18:16;;;;;;;20.17;8.77;;;-0.10;99.90;;;;;;5079830;28;20683;-87
2022/03/08 05:20:43;;;;;;;19.83;8.93;;;-0.10;99.90;;;;;;5079234;28;20216;-87
2022/03/08 05:23:10;;;;;;;17.17;8.83;;;-0.10;99.90;;;;;;5075838;28;20231;-87
2022/03/08 05:25:37;;;;;;;14.63;9.73;;;-0.10;99.90;;;;;;5078022;28;20231;-88
2022/03/08 05:28:04;;;;;;;16.37;10.37;;;-0.10;99.90;;;;;;5075191;28;20197;-86
2022/03/08 05:30:31;;;;;;;17.50;8.77;;;0.00;99.90;;;;;;5075553;28;20699;-88
2022/03/08 05:32:59;;;;;;;16.83;9.07;;;-0.10;99.90;;;;;;5081352;28;20235;-89
2022/03/08 05:35:27;;;;;;;20.23;9.90;;;-0.10;99.90;;;;;;5079341;28;20199;-87
2022/03/08 05:37:54;;;;;;;19.87;9.60;;;-0.10;99.90;;;;;;5079115;28;20749;-87
2022/03/08 05:40:21;;;;;;;16.47;9.47;;;-0.10;99.90;;;;;;5091721;28;20284;-86
2022/03/08 05:42:47;;;;;;;15.00;9.57;;;-0.10;99.90;;;;;;5091691;28;20213;-87
2022/03/08 05:45:15;;;;;;;17.87;9.37;;;-0.20;99.90;;;;;;5087568;28;20215;-87
2022/03/08 05:47:42;;;;;;;14.23;9.53;;;-0.20;99.90;;;;;;5087051;28;20204;-87
2022/03/08 05:50:10;;;;;;;19.53;9.67;;;-0.20;99.90;;;;;;5100996;28;20244;-85
2022/03/08 05:52:38;;;;;;;14.97;8.80;;;-0.20;99.90;;;;;;5080526;28;20210;-86
2022/03/08 05:55:06;;;;;;;17.13;9.43;;;-0.20;99.90;;;;;;5068138;28;20240;-87
2022/03/08 05:57:34;;;;;;;18.47;9.93;;;-0.20;99.90;;;;;;5075674;28;20229;-86
2022/03/08 06:00:01;;;;;;;16.63;9.27;;;-0.10;99.90;;;;;;5081479;28;20603;-86
2022/03/08 06:02:28;;;;;;;15.20;9.37;;;-0.20;99.90;;;;;;5096013;28;20208;-86
2022/03/08 06:04:56;;;;;;;14.97;8.73;;;-0.20;99.90;;;;;;5082874;28;20204;-87
2022/03/08 06:07:23;;;;;;;17.17;9.53;;;-0.10;99.90;;;;;;5074150;28;20597;-85
2022/03/08 06:09:50;;;;;;;17.40;8.40;;;-0.10;99.90;;;;;;5071491;28;20318;-86
2022/03/08 06:12:16;;;;;;;17.97;9.23;;;-0.10;99.90;;;;;;5091671;28;20292;-86
2022/03/08 06:14:43;;;;;;;15.77;9.27;;;-0.10;99.90;;;;;;5078321;28;20196;-86
2022/03/08 06:17:10;;;;;;;14.73;8.90;;;-0.10;99.90;;;;;;5077609;28;20256;-85
2022/03/08 06:19:37;;;;;;;14.83;8.80;;;0.00;99.90;;;;;;5073102;28;20669;-86
2022/03/08 06:22:04;;;;;;;17.60;8.57;;;0.00;99.90;;;;;;5071769;28;20303;-85
2022/03/08 06:24:32;;;;;;;13.97;8.83;;;0.00;99.90;;;;;;5074445;28;20300;-87
2022/03/08 06:26:59;;;;;;;15.80;8.57;;;0.00;99.90;;;;;;5072952;28;20208;-86
2022/03/08 06:29:27;;;;;;;12.57;8.43;;;0.10;99.90;;;;;;5098236;28;20264;-85
2022/03/08 06:31:54;;;;;;;15.40;8.77;;;0.10;99.90;;;;;;5074132;28;20228;-85
2022/03/08 06:34:22;;;;;;;12.10;7.97;;;0.10;99.90;;;;;;5072600;28;20223;-81
2022/03/08 06:36:49;;;;;;;13.83;8.40;;;0.20;99.90;;;;;;5072144;28;20203;-85
2022/03/08 06:39:16;;;;;;;12.03;8.13;;;0.20;99.90;;;;;;5069766;28;20195;-84
2022/03/08 06:41:44;;;;;;;13.40;8.93;;;0.20;99.90;;;;;;5076401;28;20247;-85
2022/03/08 06:44:11;;;;;;;16.90;8.37;;;0.20;99.90;;;;;;5083950;28;20299;-84
2022/03/08 06:46:41;;;;;;;14.20;8.23;;;0.20;99.90;;;;;;5093134;28;20737;-83
2022/03/08 06:49:08;;;;;;;13.53;8.73;;;0.30;99.90;;;;;;5075701;28;20509;-84
2022/03/08 06:51:35;;;;;;;12.37;8.13;;;0.30;99.90;;;;;;5070428;28;20227;-83
2022/03/08 06:54:03;;;;;;;15.70;8.53;;;0.40;99.90;;;;;;5072788;28;20236;-83
2022/03/08 06:56:30;;;;;;;13.63;8.60;;;0.40;99.90;;;;;;5072172;28;20200;-84
2022/03/08 06:58:57;;;;;;;14.97;9.50;;;0.50;99.90;;;;;;5076342;28;20208;-84
2022/03/08 07:01:24;;;;;;;19.83;9.90;;;1.00;99.90;;;;;;5092518;28;20217;-81
2022/03/08 07:03:51;;;;;;;12.97;8.27;;;1.90;99.90;;;;;;5074866;28;20207;-85
2022/03/08 07:06:17;;;;;;;11.73;7.67;;;2.80;99.90;;;;;;5074410;28;20298;-83
2022/03/08 07:08:50;;;;;;;13.53;8.53;;;3.80;99.90;;;;;;5074707;28;20538;-83
2022/03/08 07:11:18;;;;;;;10.53;7.60;;;4.60;99.90;;;;;;5084329;28;20336;-83
2022/03/08 07:13:44;;;;;;;15.67;7.97;;;5.40;99.90;;;;;;5091942;28;20214;-83
2022/03/08 07:16:11;;;;;;;11.80;7.80;;;6.10;99.90;;;;;;5079933;28;20259;-83
2022/03/08 07:18:38;;;;;;;9.57;7.20;;;6.70;99.90;;;;;;5077163;28;20203;-83
2022/03/08 07:21:07;;;;;;;10.37;6.90;;;7.10;99.90;;;;;;5079783;28;20221;-82
2022/03/08 07:23:34;;;;;;;9.47;7.20;;;7.50;99.90;;;;;;5072333;28;20299;-84
2022/03/08 07:26:01;;;;;;;10.93;7.37;;;7.90;99.90;;;;;;5074674;28;20208;-84
2022/03/08 07:28:27;;;;;;;10.20;6.87;;;8.20;99.90;;;;;;5073897;28;20240;-83
2022/03/08 07:31:00;;;;;;;10.03;7.60;;;8.50;99.90;;;;;;5070899;28;20265;-82
2022/03/08 07:33:28;;;;;;;12.53;7.53;;;8.80;99.90;;;;;;5077109;28;20306;-84
2022/03/08 07:35:55;;;;;;;10.13;7.03;;;9.00;99.90;;;;;;5068673;28;20308;-83
2022/03/08 07:38:24;;;;;;;9.90;7.23;;;9.00;99.90;;;;;;5074532;28;20262;-83
2022/03/08 07:40:56;;;;;;;12.77;7.40;;;9.10;99.90;;;;;;5090932;28;20729;-82
2022/03/08 07:43:24;;;;;;;9.37;6.87;;;9.10;99.90;;;;;;5089179;28;20758;-83
2022/03/08 07:45:51;;;;;;;12.50;7.37;;;9.10;99.90;;;;;;5092011;28;20220;-83
2022/03/08 07:48:21;;;;;;;9.70;7.47;;;9.10;99.90;;;;;;5067058;28;20215;-84
2022/03/08 07:50:47;;;;;;;11.40;7.00;;;8.80;99.90;;;;;;5071806;28;20235;-83
2022/03/08 07:53:14;;;;;;;10.00;7.37;;;8.10;99.90;;;;;;5070158;28;20201;-83
2022/03/08 07:55:41;;;;;;;11.83;7.70;;;7.30;99.90;;;;;;5074282;28;20636;-83
2022/03/08 07:58:11;;;;;;;11.70;7.57;;;6.60;99.90;;;;;;5073318;28;20239;-84
2022/03/08 08:00:40;;;;;;;10.43;7.60;;;6.10;99.90;;;;;;5073188;28;20227;-83
2022/03/08 08:03:10;;;;;;;10.97;6.83;;;5.60;99.90;;;;;;5074139;28;20207;-82
2022/03/08 08:05:39;;;;;;;10.40;7.17;;;5.20;99.90;;;;;;5077303;28;20219;-83
2022/03/08 08:08:06;;;;;;;13.90;7.90;;;4.90;99.90;;;;;;5075906;28;20267;-83
2022/03/08 08:10:35;;;;;;;11.93;7.33;;;4.70;99.90;;;;;;5074175;28;20234;-84
2022/03/08 08:13:02;;;;;;;10.57;7.40;;;4.50;99.90;;;;;;5089696;28;20270;-83
2022/03/08 08:15:29;;;;;;;11.47;7.73;;;4.40;99.90;;;;;;5089509;28;20693;-83
2022/03/08 08:17:56;;;;;;;14.70;7.93;;;4.30;99.90;;;;;;5071828;28;20206;-83
2022/03/08 08:20:26;;;;;;;13.77;7.87;;;4.30;99.90;;;;;;5079378;28;20206;-83
2022/03/08 08:22:53;;;;;;;11.70;7.80;;;4.20;99.90;;;;;;5070949;28;20568;-83
2022/03/08 08:25:21;;;;;;;12.70;7.40;;;4.20;99.90;;;;;;5085462;28;20240;-84
2022/03/08 08:27:52;;;;;;;12.80;7.07;;;4.20;99.90;;;;;;5074060;28;20206;-84
2022/03/08 08:30:18;;;;;;;13.47;7.97;;;4.20;99.90;;;;;;5074531;28;20241;-86
2022/03/08 08:32:50;;;;;;;11.00;7.03;;;4.30;99.90;;;;;;5073393;28;20774;-85
2022/03/08 08:35:23;;;;;;;10.13;6.97;;;4.20;99.90;;;;;;5073776;28;20778;-85
2022/03/08 08:37:50;;;;;;;10.23;7.93;;;4.30;99.90;;;;;;5078746;28;20240;-85
2022/03/08 08:40:17;;;;;;;10.83;6.80;;;4.30;99.90;;;;;;5097617;28;20220;-85
2022/03/08 08:42:44;;;;;;;13.30;7.27;;;4.40;99.90;;;;;;5079426;28;20201;-86
2022/03/08 08:45:13;;;;;;;10.77;7.53;;;4.40;99.90;;;;;;5076375;28;20230;-84
2022/03/08 08:47:43;;;;;;;7.87;6.03;;;4.60;99.90;;;;;;5093535;28;20222;-85
2022/03/08 08:50:11;;;;;;;11.97;6.83;;;4.50;99.90;;;;;;5077033;28;20283;-84
2022/03/08 08:52:47;;;;;;;11.77;6.97;;;4.50;99.90;;;;;;5093420;28;20200;-86
2022/03/08 08:55:19;;;;;;;11.77;7.40;;;4.60;99.90;;;;;;5068207;28;20694;-88
2022/03/08 08:57:49;;;;;;;11.93;6.70;;;4.80;99.90;;;;;;5096595;28;20210;-86
2022/03/08 09:00:17;;;;;;;10.43;6.73;;;4.80;99.90;;;;;;5073862;28;20298;-86
2022/03/08 09:02:45;;;;;;;10.67;6.30;;;4.90;99.90;;;;;;5077125;28;20219;-87
2022/03/08 09:05:20;;;;;;;11.87;6.90;;;4.90;99.90;;;;;;5078602;28;20214;-87
2022/03/08 09:07:47;;;;;;;9.13;7.20;;;5.00;99.90;;;;;;5080944;28;20293;-85
2022/03/08 09:10:25;;;;;;;;;;;;;;;;;;;;;
2022/03/08 09:13:05;;;;;;;9.83;7.03;;;5.30;99.90;;;;;;5104188;28;20213;-86
2022/03/08 09:15:33;;;;;;;9.50;6.03;;;5.50;99.90;;;;;;5078336;28;20258;-86
2022/03/08 09:18:05;;;;;;;10.77;5.87;;;5.60;99.90;;;;;;5103001;28;20240;-85
2022/03/08 09:20:35;;;;;;;11.23;6.33;;;5.90;99.90;;;;;;5084204;28;20206;-87
2022/03/08 09:23:02;;;;;;;15.07;6.90;;;6.30;99.90;;;;;;5087218;28;20204;-85
2022/03/08 09:25:29;;;;;;;8.47;6.23;;;6.70;99.90;;;;;;5081630;28;20265;-85
2022/03/08 09:27:56;;;;;;;14.90;6.67;;;7.00;99.90;;;;;;5087170;28;20546;-87
2022/03/08 09:30:23;;;;;;;8.07;6.10;;;7.30;99.90;;;;;;5087876;28;20232;-87
2022/03/08 09:32:51;;;;;;;9.60;6.47;;;7.50;99.90;;;;;;5085732;28;20245;-86
2022/03/08 09:35:18;;;;;;;8.87;6.33;;;7.70;99.90;;;;;;5091351;28;20654;-87
2022/03/08 09:37:45;;;;;;;8.57;6.40;;;7.90;99.90;;;;;;5099149;28;20220;-88
2022/03/08 09:40:12;;;;;;;8.67;5.93;;;8.00;99.90;;;;;;5088853;28;20208;-85
2022/03/08 09:42:39;;;;;;;8.13;6.33;;;8.20;99.90;;;;;;5073409;28;20223;-86
2022/03/08 09:45:07;;;;;;;10.10;6.60;;;8.20;99.90;;;;;;5094657;28;20219;-85
2022/03/08 09:47:35;;;;;;;9.10;6.57;;;8.30;99.90;;;;;;5085067;28;20211;-87
2022/03/08 09:50:04;;;;;;;15.13;6.50;;;8.40;99.90;;;;;;5082616;28;20205;-86
2022/03/08 09:52:38;;;;;;;7.87;6.07;;;8.50;99.90;;;;;;5087716;28;20615;-86
2022/03/08 09:55:12;;;;;;;9.47;6.67;;;8.60;99.90;;;;;;5083153;28;20210;-88
2022/03/08 09:57:39;;;;;;;10.10;6.63;;;8.50;99.90;;;;;;5087930;28;20212;-85
2022/03/08 10:00:12;;;;;;;8.57;6.30;;;8.50;99.90;;;;;;5085867;28;20208;-85
2022/03/08 10:02:47;;;;;;;11.90;6.80;;;8.50;99.90;;;;;;5079953;28;20703;-87
2022/03/08 10:05:15;;;;;;;7.63;5.97;;;8.50;99.90;;;;;;5082023;28;20206;-86
2022/03/08 10:08:03;;;;;;;7.33;5.50;;;8.50;99.90;;;;;;5100080;28;20242;-86
2022/03/08 10:10:31;;;;;;;8.60;6.50;;;8.40;98.90;;;;;;5076154;28;20226;-86
2022/03/08 10:13:03;;;;;;;9.07;6.00;;;8.40;99.30;;;;;;5080159;28;20561;-86
2022/03/08 10:15:30;;;;;;;10.37;6.33;;;8.20;99.30;;;;;;5081819;28;20222;-85
2022/03/08 10:17:57;;;;;;;10.77;6.53;;;8.10;99.20;;;;;;5103436;28;20210;-85
2022/03/08 10:20:29;;;;;;;9.83;6.60;;;8.10;99.40;;;;;;5081897;28;20204;-87
2022/03/08 10:22:57;;;;;;;11.23;6.23;;;8.00;99.10;;;;;;5078322;28;20233;-84
2022/03/08 10:25:30;;;;;;;11.13;7.50;;;8.00;99.30;;;;;;5084012;28;20274;-86
2022/03/08 10:27:58;;;;;;;8.13;6.70;;;7.90;99.20;;;;;;5091281;28;20230;-88
2022/03/08 10:30:33;;;;;;;8.00;5.97;;;7.90;99.00;;;;;;5079897;28;20259;-84
2022/03/08 10:33:03;;;;;;;9.63;6.40;;;7.90;99.20;;;;;;5098232;28;20591;-88
2022/03/08 10:35:37;;;;;;;7.70;6.27;;;8.00;99.00;;;;;;5088548;28;20217;-85
2022/03/08 10:38:08;;;;;;;9.33;6.13;;;7.90;98.60;;;;;;5082696;28;20218;-87
2022/03/08 10:40:38;;;;;;;8.70;6.57;;;8.10;98.30;;;;;;5097316;28;20599;-87
2022/03/08 10:43:09;;;;;;;8.13;6.23;;;7.90;98.30;;;;;;5080046;28;20253;-88
2022/03/08 10:45:40;;;;;;;10.60;6.27;;;7.90;98.10;;;;;;5084768;28;20252;-85
2022/03/08 10:48:08;;;;;;;7.90;6.13;;;8.00;97.90;;;;;;5088482;28;20212;-87
2022/03/08 10:50:37;;;;;;;7.83;6.53;;;7.90;97.80;;;;;;5089721;28;20257;-86
2022/03/08 10:53:09;;;;;;;8.23;6.23;;;8.00;97.60;;;;;;5090913;28;20205;-86
2022/03/08 10:55:39;;;;;;;9.40;6.67;;;8.00;97.60;;;;;;5065824;28;20198;-87
2022/03/08 10:58:12;;;;;;;8.63;6.70;;;8.10;97.10;;;;;;5102618;28;20543;-85
2022/03/08 11:00:45;;;;;;;7.27;5.97;;;8.10;97.20;;;;;;5094878;28;20214;-86
2022/03/08 11:03:19;;;;;;;10.33;7.00;;;8.20;97.50;;;;;;5090947;28;20209;-84
2022/03/08 11:05:49;;;;;;;9.10;6.03;;;8.50;97.00;;;;;;5104894;28;20207;-84
2022/03/08 11:08:17;;;;;;;10.47;6.97;;;8.40;97.10;;;;;;5080538;28;20575;-85
2022/03/08 11:10:45;;;;;;;10.90;6.90;;;8.60;97.10;;;;;;5076827;28;20224;-87
2022/03/08 11:13:14;;;;;;;9.03;6.50;;;8.60;97.30;;;;;;5097219;28;20223;-86
2022/03/08 11:15:45;;;;;;;8.10;6.17;;;8.70;96.90;;;;;;5079891;28;20760;-83
2022/03/08 11:18:14;;;;;;;7.87;5.63;;;8.80;96.30;;;;;;5083242;28;20656;-85
2022/03/08 11:20:45;;;;;;;8.93;6.70;;;8.90;96.00;;;;;;5074489;28;20207;-86
2022/03/08 11:23:12;;;;;;;9.07;6.83;;;8.90;95.80;;;;;;5078472;28;20255;-84
2022/03/08 11:25:43;;;;;;;8.73;6.83;;;9.00;95.40;;;;;;5059766;28;20214;-85
2022/03/08 11:28:20;;;;;;;8.83;6.30;;;9.00;95.20;;;;;;5081136;28;20604;-85
2022/03/08 11:30:57;;;;;;;11.37;6.50;;;9.10;95.50;;;;;;5076801;28;20234;-85
2022/03/08 11:33:33;;;;;;;8.97;6.53;;;9.30;95.60;;;;;;5081669;28;20281;-86
2022/03/08 11:36:02;;;;;;;10.60;6.53;;;9.40;94.20;;;;;;5070905;28;20255;-84
2022/03/08 11:38:30;;;;;;;10.67;6.90;;;9.50;94.60;;;;;;5089028;28;20239;-86
2022/03/08 11:40:58;;;;;;;8.73;6.93;;;9.50;94.70;;;;;;5067616;28;20234;-85
2022/03/08 11:43:44;;;;;;;9.37;6.43;;;9.70;94.70;;;;;;5094900;28;20574;-84
2022/03/08 11:46:16;;;;;;;10.07;6.60;;;9.80;94.20;;;;;;5098198;28;20327;-86
2022/03/08 11:48:56;;;;;;;9.63;6.53;;;9.80;93.50;;;;;;5073635;28;20214;-83
2022/03/08 11:51:24;;;;;;;10.53;7.13;;;9.80;93.20;;;;;;5078748;28;20244;-85
2022/03/08 11:54:09;;;;;;;9.57;7.00;;;9.90;93.30;;;;;;5071983;28;20196;-83
2022/03/08 11:56:47;;;;;;;9.67;6.33;;;9.90;93.00;;;;;;5078457;28;20558;-87
2022/03/08 11:59:15;;;;;;;10.40;6.40;;;10.10;93.30;;;;;;5077775;28;20281;-87
2022/03/08 12:01:48;;;;;;;11.63;6.70;;;10.10;93.20;;;;;;5068968;28;20640;-85
2022/03/08 12:04:18;;;;;;;8.43;6.63;;;10.20;93.10;;;;;;5076985;28;20579;-85
2022/03/08 12:06:58;;;;;;;9.97;7.17;;;10.20;92.70;;;;;;5091009;28;20196;-87
2022/03/08 12:09:25;;;;;;;9.33;6.33;;;10.20;93.10;;;;;;5080766;28;20206;-85
2022/03/08 12:11:59;;;;;;;8.77;6.60;;;10.30;92.70;;;;;;5095691;28;20219;-86
2022/03/08 12:14:38;;;;;;;10.63;7.63;;;10.40;92.30;;;;;;5097582;28;20689;-87
2022/03/08 12:17:17;;;;;;;11.70;6.87;;;10.40;92.00;;;;;;5091227;28;20306;-86
2022/03/08 12:19:48;;;;;;;9.83;6.50;;;10.40;91.10;;;;;;5107407;28;20185;-85
2022/03/08 12:22:18;;;;;;;15.13;7.23;;;10.50;91.00;;;;;;5110536;28;20356;-84
2022/03/08 12:24:56;;;;;;;7.57;6.30;;;10.60;91.30;;;;;;5091844;28;20246;-84
2022/03/08 12:27:44;;;;;;;9.63;6.50;;;10.70;91.40;;;;;;5113896;28;20199;-86
2022/03/08 12:30:11;;;;;;;10.47;6.80;;;10.70;90.60;;;;;;5111202;28;20244;-86
2022/03/08 12:32:42;;;;;;;8.97;6.57;;;10.80;90.40;;;;;;5087308;28;20282;-87
2022/03/08 12:35:24;;;;;;;9.17;6.80;;;10.80;90.30;;;;;;5077293;28;20287;-84
2022/03/08 12:37:58;;;;;;;11.07;7.00;;;10.80;89.70;;;;;;5101250;28;20216;-85
2022/03/08 12:40:29;;;;;;;10.13;6.80;;;10.90;90.20;;;;;;5098428;28;20261;-85
2022/03/08 12:42:58;;;;;;;13.17;7.53;;;10.90;90.10;;;;;;5096764;28;20233;-85
2022/03/08 12:45:28;;;;;;;8.97;6.73;;;11.00;90.50;;;;;;5085609;28;20787;-86
2022/03/08 12:48:07;;;;;;;9.77;7.17;;;11.10;90.50;;;;;;5074483;28;20224;-85
2022/03/08 12:50:37;;;;;;;10.77;6.93;;;11.10;90.60;;;;;;5079157;28;20210;-86